Mosca, CO (81146)

12:48 PM MDT on September 01, 2014 (GMT -0600)
Hooper | Change Station
CLOSE
Current Station
Personal Weather Station
Location: Hooper, CO
Elevation: 7559 ft
Nearby Weather Stations

Elev 7559 ft 37.73 °N, 105.87 °W | Updated 1 second ago

Clear
Clear
80.2 °F
Feels Like 79 °F
N
0.0
Wind Variable Wind from SSE
Gusts 15.0 mph

Today
High -- | Low -- °F
--% Chance of Precip.
Yesterday
High -- | Low -- °F
Precip. -- in
6:33 AM 7:31 PM
Waxing Crescent, 43% visible
Pressure 29.90 in
Visibility 10.0 miles
Clouds Clear
Heat Index 79 °F
Dew Point 34 °F
Humidity 19%
Rainfall 0.00 in
Snow Depth Not available.
UV 10 out of 12
Pollen 10.10 out of 12
Air Quality Not available.
Flu Activity Not available.
METAR KALS 011752Z AUTO VRB04KT 10SM CLR 23/M01 A3018 RMK AO2 SLP125 T02331006 10239 20039 58009

More Conditions Fewer Conditions

Pressure 29.90 in
Visibility 10.0 miles
Clouds Clear
Heat Index 79 °F
Dew Point 34 °F
Humidity 19%
Rainfall 0.00 in
Snow Depth Not available.
UV 10 out of 12
Pollen 10.10 out of 12
Air Quality Not available.
Flu Activity Not available.
METAR KALS 011752Z AUTO VRB04KT 10SM CLR 23/M01 A3018 RMK AO2 SLP125 T02331006 10239 20039 58009

More Conditions Fewer Conditions

10-Day Weather Forecast

Almanac

Astronomy

Sep. 01, 2014 Rise Set
Actual Time 6:33 AM MDT 7:31 PM MDT
Civil Twilight 6:06 AM MDT 7:58 PM MDT
Nautical Twilight 5:34 AM MDT 8:30 PM MDT
Astronomical Twilight 5:01 AM MDT 9:03 PM MDT
Moon 1:13 PM MDT 11:43 PM MDT
Length of Visible Light 13h 52m
Length of Day
12h 58m
Tomorrow will be 2m 20s shorter.
Waxing Crescent, 43% of the Moon is Illuminated
Today
Waxing Crescent
Sep 2
First Quarter
Sep 8
Full
Sep 15
Last Quarter
Sep 24
New

Today's Extremes

State Highs State Lows

Community

WunderPhotos

Upload Photos

1,749,359 photos uploaded!

Nearby

Snow Depth

Station Depth Elevation
Wolf Creek Summit 0 in 11000 ft
Upper San Juan 0 in 10130 ft
Rough And Tumble 1 in 10360 ft
Stump Lakes 0 in 11200 ft
Brumley 0 in 10600 ft

Earthquake Activity

City Distance Mag. Time & Date
Trinidad, Colorado 57 miles 2.7 4:20 AM MDT
2014-08-31
Minimum magnitude displayed is 2.5.

Coastal Water Temperatures

Place Temperature
No Stations Reporting

Nearby Weather Stations